sensor_id;sensor_type;location;lat;lon;timestamp;pressure;altitude;pressure_sealevel;temperature
11926;BMP180;6022;48.768;18.608;2023-11-19T00:01:51;98882.38;;;3.38
11926;BMP180;6022;48.768;18.608;2023-11-19T00:04:19;98883.22;;;3.39
11926;BMP180;6022;48.768;18.608;2023-11-19T00:06:48;98872.63;;;3.30
11926;BMP180;6022;48.768;18.608;2023-11-19T00:09:16;98863.91;;;3.12
11926;BMP180;6022;48.768;18.608;2023-11-19T00:11:45;98867.28;;;3.11
11926;BMP180;6022;48.768;18.608;2023-11-19T00:14:21;98871.34;;;3.15
11926;BMP180;6022;48.768;18.608;2023-11-19T00:16:48;98863.69;;;3.20
11926;BMP180;6022;48.768;18.608;2023-11-19T00:19:18;98862.91;;;3.18
11926;BMP180;6022;48.768;18.608;2023-11-19T00:21:47;98852.44;;;3.05
11926;BMP180;6022;48.768;18.608;2023-11-19T00:24:17;98849.38;;;2.95
11926;BMP180;6022;48.768;18.608;2023-11-19T00:26:47;98842.81;;;2.91
11926;BMP180;6022;48.768;18.608;2023-11-19T00:29:18;98850.03;;;3.01
11926;BMP180;6022;48.768;18.608;2023-11-19T00:31:48;98844.22;;;2.99
11926;BMP180;6022;48.768;18.608;2023-11-19T00:34:17;98833.44;;;2.97
11926;BMP180;6022;48.768;18.608;2023-11-19T00:36:51;98837.47;;;3.02
11926;BMP180;6022;48.768;18.608;2023-11-19T00:39:21;98841.66;;;3.02
11926;BMP180;6022;48.768;18.608;2023-11-19T00:41:51;98841.72;;;2.99
11926;BMP180;6022;48.768;18.608;2023-11-19T00:44:20;98839.25;;;2.98
11926;BMP180;6022;48.768;18.608;2023-11-19T00:46:50;98823.72;;;2.87
11926;BMP180;6022;48.768;18.608;2023-11-19T00:49:21;98835.50;;;2.83
11926;BMP180;6022;48.768;18.608;2023-11-19T00:51:49;98841.34;;;2.82
11926;BMP180;6022;48.768;18.608;2023-11-19T00:54:17;98856.47;;;2.79
11926;BMP180;6022;48.768;18.608;2023-11-19T00:56:45;98849.84;;;2.77
11926;BMP180;6022;48.768;18.608;2023-11-19T00:59:16;98862.34;;;2.78
11926;BMP180;6022;48.768;18.608;2023-11-19T01:01:46;98860.63;;;2.79
11926;BMP180;6022;48.768;18.608;2023-11-19T01:04:18;98861.59;;;2.75
11926;BMP180;6022;48.768;18.608;2023-11-19T01:06:47;98859.09;;;2.75
11926;BMP180;6022;48.768;18.608;2023-11-19T01:09:16;98856.69;;;2.72
11926;BMP180;6022;48.768;18.608;2023-11-19T01:11:44;98854.84;;;2.77
11926;BMP180;6022;48.768;18.608;2023-11-19T01:14:12;98852.31;;;2.78
11926;BMP180;6022;48.768;18.608;2023-11-19T01:16:42;98858.13;;;2.79
11926;BMP180;6022;48.768;18.608;2023-11-19T01:19:14;98847.53;;;2.69
11926;BMP180;6022;48.768;18.608;2023-11-19T01:21:45;98851.91;;;2.63
11926;BMP180;6022;48.768;18.608;2023-11-19T01:24:12;98844.50;;;2.59
11926;BMP180;6022;48.768;18.608;2023-11-19T01:26:43;98844.56;;;2.56
11926;BMP180;6022;48.768;18.608;2023-11-19T01:29:19;98838.81;;;2.52
11926;BMP180;6022;48.768;18.608;2023-11-19T01:31:47;98834.41;;;2.62
11926;BMP180;6022;48.768;18.608;2023-11-19T01:34:18;98827.78;;;2.59
11926;BMP180;6022;48.768;18.608;2023-11-19T01:36:47;98820.47;;;2.52
11926;BMP180;6022;48.768;18.608;2023-11-19T01:39:18;98807.31;;;2.45
11926;BMP180;6022;48.768;18.608;2023-11-19T01:41:50;98804.69;;;2.50
11926;BMP180;6022;48.768;18.608;2023-11-19T01:44:18;98804.59;;;2.53
11926;BMP180;6022;48.768;18.608;2023-11-19T01:46:47;98812.97;;;2.52
11926;BMP180;6022;48.768;18.608;2023-11-19T01:49:18;98816.31;;;2.51
11926;BMP180;6022;48.768;18.608;2023-11-19T01:51:50;98822.16;;;2.51
11926;BMP180;6022;48.768;18.608;2023-11-19T01:54:18;98818.72;;;2.55
11926;BMP180;6022;48.768;18.608;2023-11-19T01:56:46;98804.09;;;2.40
11926;BMP180;6022;48.768;18.608;2023-11-19T01:59:16;98799.63;;;2.20
11926;BMP180;6022;48.768;18.608;2023-11-19T02:01:44;98786.94;;;2.25
11926;BMP180;6022;48.768;18.608;2023-11-19T02:04:27;98773.13;;;2.11
11926;BMP180;6022;48.768;18.608;2023-11-19T02:06:58;98751.44;;;2.12
11926;BMP180;6022;48.768;18.608;2023-11-19T02:09:27;98749.00;;;2.09
11926;BMP180;6022;48.768;18.608;2023-11-19T02:12:02;98763.03;;;2.16
11926;BMP180;6022;48.768;18.608;2023-11-19T02:14:53;98754.63;;;2.17
11926;BMP180;6022;48.768;18.608;2023-11-19T02:18:27;98744.56;;;2.20
11926;BMP180;6022;48.768;18.608;2023-11-19T02:20:58;98748.88;;;2.13
11926;BMP180;6022;48.768;18.608;2023-11-19T02:23:30;98746.47;;;2.10
11926;BMP180;6022;48.768;18.608;2023-11-19T02:29:11;98716.44;;;2.10
11926;BMP180;6022;48.768;18.608;2023-11-19T02:31:42;98722.19;;;2.14
11926;BMP180;6022;48.768;18.608;2023-11-19T02:34:15;98726.22;;;2.19
11926;BMP180;6022;48.768;18.608;2023-11-19T02:36:46;98719.53;;;2.20
11926;BMP180;6022;48.768;18.608;2023-11-19T02:39:17;98715.94;;;2.29
11926;BMP180;6022;48.768;18.608;2023-11-19T02:41:49;98718.44;;;2.29
11926;BMP180;6022;48.768;18.608;2023-11-19T02:44:20;98722.69;;;2.26
11926;BMP180;6022;48.768;18.608;2023-11-19T02:46:49;98720.94;;;2.29
11926;BMP180;6022;48.768;18.608;2023-11-19T02:49:17;98710.16;;;2.27
11926;BMP180;6022;48.768;18.608;2023-11-19T02:51:47;98711.88;;;2.25
11926;BMP180;6022;48.768;18.608;2023-11-19T02:54:18;98712.69;;;2.26
11926;BMP180;6022;48.768;18.608;2023-11-19T02:56:48;98707.88;;;2.19
11926;BMP180;6022;48.768;18.608;2023-11-19T02:59:22;98669.09;;;2.04
11926;BMP180;6022;48.768;18.608;2023-11-19T03:01:56;98687.34;;;2.08
11926;BMP180;6022;48.768;18.608;2023-11-19T03:04:25;98707.38;;;2.06
11926;BMP180;6022;48.768;18.608;2023-11-19T03:06:53;98695.53;;;2.13
11926;BMP180;6022;48.768;18.608;2023-11-19T03:09:22;98678.00;;;2.13
11926;BMP180;6022;48.768;18.608;2023-11-19T03:11:52;98670.06;;;1.99
11926;BMP180;6022;48.768;18.608;2023-11-19T03:14:20;98656.97;;;1.89
11926;BMP180;6022;48.768;18.608;2023-11-19T03:16:51;98660.22;;;1.93
11926;BMP180;6022;48.768;18.608;2023-11-19T03:19:19;98650.94;;;1.96
11926;BMP180;6022;48.768;18.608;2023-11-19T03:21:50;98655.88;;;1.99
11926;BMP180;6022;48.768;18.608;2023-11-19T03:24:19;98660.13;;;1.96
11926;BMP180;6022;48.768;18.608;2023-11-19T03:26:49;98645.28;;;1.90
11926;BMP180;6022;48.768;18.608;2023-11-19T03:29:20;98649.03;;;1.74
11926;BMP180;6022;48.768;18.608;2023-11-19T03:31:48;98648.25;;;1.72
11926;BMP180;6022;48.768;18.608;2023-11-19T03:34:17;98645.66;;;1.75
11926;BMP180;6022;48.768;18.608;2023-11-19T03:36:46;98643.94;;;1.77
11926;BMP180;6022;48.768;18.608;2023-11-19T03:39:14;98627.53;;;1.67
11926;BMP180;6022;48.768;18.608;2023-11-19T03:41:45;98635.81;;;1.69
11926;BMP180;6022;48.768;18.608;2023-11-19T03:44:14;98627.84;;;1.55
11926;BMP180;6022;48.768;18.608;2023-11-19T03:46:42;98612.69;;;1.61
11926;BMP180;6022;48.768;18.608;2023-11-19T03:49:11;98620.88;;;1.66
11926;BMP180;6022;48.768;18.608;2023-11-19T03:51:40;98608.28;;;1.71
11926;BMP180;6022;48.768;18.608;2023-11-19T03:54:10;98604.81;;;1.76
11926;BMP180;6022;48.768;18.608;2023-11-19T03:56:41;98597.41;;;1.72
11926;BMP180;6022;48.768;18.608;2023-11-19T03:59:11;98593.28;;;1.71
11926;BMP180;6022;48.768;18.608;2023-11-19T04:01:39;98590.81;;;1.69
11926;BMP180;6022;48.768;18.608;2023-11-19T04:04:07;98595.66;;;1.75
11926;BMP180;6022;48.768;18.608;2023-11-19T04:06:35;98578.88;;;1.80
11926;BMP180;6022;48.768;18.608;2023-11-19T04:09:03;98578.34;;;1.68
11926;BMP180;6022;48.768;18.608;2023-11-19T04:11:31;98590.78;;;1.71
11926;BMP180;6022;48.768;18.608;2023-11-19T04:14:00;98594.75;;;1.78
11926;BMP180;6022;48.768;18.608;2023-11-19T04:16:32;98592.16;;;1.82
11926;BMP180;6022;48.768;18.608;2023-11-19T04:19:01;98591.28;;;1.83
11926;BMP180;6022;48.768;18.608;2023-11-19T04:21:28;98604.53;;;1.85
11926;BMP180;6022;48.768;18.608;2023-11-19T04:23:56;98584.50;;;1.87
11926;BMP180;6022;48.768;18.608;2023-11-19T04:26:24;98588.59;;;1.89
11926;BMP180;6022;48.768;18.608;2023-11-19T04:28:53;98592.72;;;1.91
11926;BMP180;6022;48.768;18.608;2023-11-19T04:31:20;98611.81;;;1.94
11926;BMP180;6022;48.768;18.608;2023-11-19T04:33:48;98616.91;;;1.91
11926;BMP180;6022;48.768;18.608;2023-11-19T04:36:19;98616.91;;;1.91
11926;BMP180;6022;48.768;18.608;2023-11-19T04:38:49;98622.72;;;1.91
11926;BMP180;6022;48.768;18.608;2023-11-19T04:41:17;98617.63;;;1.94
11926;BMP180;6022;48.768;18.608;2023-11-19T04:43:45;98610.25;;;1.90
11926;BMP180;6022;48.768;18.608;2023-11-19T04:46:14;98623.78;;;1.83
11926;BMP180;6022;48.768;18.608;2023-11-19T04:48:44;98627.19;;;1.81
11926;BMP180;6022;48.768;18.608;2023-11-19T04:51:13;98636.44;;;1.77
11926;BMP180;6022;48.768;18.608;2023-11-19T04:53:45;98632.97;;;1.83
11926;BMP180;6022;48.768;18.608;2023-11-19T04:56:15;98632.06;;;1.85
11926;BMP180;6022;48.768;18.608;2023-11-19T04:58:49;98628.59;;;1.89
11926;BMP180;6022;48.768;18.608;2023-11-19T05:01:20;98614.66;;;1.82
11926;BMP180;6022;48.768;18.608;2023-11-19T05:03:53;98628.75;;;1.85
11926;BMP180;6022;48.768;18.608;2023-11-19T05:06:24;98617.31;;;1.76
11926;BMP180;6022;48.768;18.608;2023-11-19T05:08:54;98615.66;;;1.75
11926;BMP180;6022;48.768;18.608;2023-11-19T05:11:23;98626.47;;;1.76
11926;BMP180;6022;48.768;18.608;2023-11-19T05:13:52;98632.22;;;1.79
11926;BMP180;6022;48.768;18.608;2023-11-19T05:16:20;98634.69;;;1.81
11926;BMP180;6022;48.768;18.608;2023-11-19T05:18:48;98621.38;;;1.80
11926;BMP180;6022;48.768;18.608;2023-11-19T05:21:17;98606.44;;;1.77
11926;BMP180;6022;48.768;18.608;2023-11-19T05:23:45;98601.53;;;1.74
11926;BMP180;6022;48.768;18.608;2023-11-19T05:26:20;98595.69;;;1.74
11926;BMP180;6022;48.768;18.608;2023-11-19T05:28:49;98604.69;;;1.81
11926;BMP180;6022;48.768;18.608;2023-11-19T05:31:18;98598.13;;;1.77
11926;BMP180;6022;48.768;18.608;2023-11-19T05:33:46;98609.66;;;1.82
11926;BMP180;6022;48.768;18.608;2023-11-19T05:36:15;98608.03;;;1.80
11926;BMP180;6022;48.768;18.608;2023-11-19T05:38:43;98600.47;;;1.83
11926;BMP180;6022;48.768;18.608;2023-11-19T05:41:12;98598.69;;;1.86
11926;BMP180;6022;48.768;18.608;2023-11-19T05:43:40;98592.81;;;1.87
11926;BMP180;6022;48.768;18.608;2023-11-19T05:46:08;98581.25;;;1.83
11926;BMP180;6022;48.768;18.608;2023-11-19T05:48:40;98589.44;;;1.89
11926;BMP180;6022;48.768;18.608;2023-11-19T05:51:08;98573.66;;;1.88
11926;BMP180;6022;48.768;18.608;2023-11-19T05:53:40;98583.59;;;1.89
11926;BMP180;6022;48.768;18.608;2023-11-19T05:56:13;98556.25;;;1.83
11926;BMP180;6022;48.768;18.608;2023-11-19T05:58:43;98544.63;;;1.82
11926;BMP180;6022;48.768;18.608;2023-11-19T06:01:12;98565.38;;;1.86
11926;BMP180;6022;48.768;18.608;2023-11-19T06:03:43;98560.41;;;1.84
11926;BMP180;6022;48.768;18.608;2023-11-19T06:06:15;98576.25;;;1.83
11926;BMP180;6022;48.768;18.608;2023-11-19T06:08:45;98586.59;;;1.71
11926;BMP180;6022;48.768;18.608;2023-11-19T06:11:16;98588.97;;;1.76
11926;BMP180;6022;48.768;18.608;2023-11-19T06:13:49;98583.47;;;1.63
11926;BMP180;6022;48.768;18.608;2023-11-19T06:16:20;98585.16;;;1.63
11926;BMP180;6022;48.768;18.608;2023-11-19T06:18:48;98591.19;;;1.56
11926;BMP180;6022;48.768;18.608;2023-11-19T06:21:23;98576.38;;;1.49
11926;BMP180;6022;48.768;18.608;2023-11-19T06:23:51;98593.31;;;1.38
11926;BMP180;6022;48.768;18.608;2023-11-19T06:26:22;98595.59;;;1.47
11926;BMP180;6022;48.768;18.608;2023-11-19T06:28:50;98586.22;;;1.54
11926;BMP180;6022;48.768;18.608;2023-11-19T06:31:18;98579.66;;;1.50
11926;BMP180;6022;48.768;18.608;2023-11-19T06:33:47;98576.28;;;1.51
11926;BMP180;6022;48.768;18.608;2023-11-19T06:36:20;98577.75;;;1.58
11926;BMP180;6022;48.768;18.608;2023-11-19T06:39:15;98574.22;;;1.67
11926;BMP180;6022;48.768;18.608;2023-11-19T06:41:47;98576.56;;;1.73
11926;BMP180;6022;48.768;18.608;2023-11-19T06:44:15;98556.66;;;1.68
11926;BMP180;6022;48.768;18.608;2023-11-19T06:46:48;98564.69;;;1.79
11926;BMP180;6022;48.768;18.608;2023-11-19T06:49:23;98572.00;;;1.87
11926;BMP180;6022;48.768;18.608;2023-11-19T06:51:54;98575.06;;;1.96
11926;BMP180;6022;48.768;18.608;2023-11-19T06:54:24;98555.84;;;1.98
11926;BMP180;6022;48.768;18.608;2023-11-19T06:56:52;98545.16;;;1.93
11926;BMP180;6022;48.768;18.608;2023-11-19T06:59:20;98534.97;;;1.99
11926;BMP180;6022;48.768;18.608;2023-11-19T07:01:49;98515.75;;;2.01
11926;BMP180;6022;48.768;18.608;2023-11-19T07:04:17;98494.84;;;2.02
11926;BMP180;6022;48.768;18.608;2023-11-19T07:06:45;98541.38;;;2.09
11926;BMP180;6022;48.768;18.608;2023-11-19T07:09:15;98542.94;;;2.11
11926;BMP180;6022;48.768;18.608;2023-11-19T07:11:44;98517.66;;;1.93
11926;BMP180;6022;48.768;18.608;2023-11-19T07:14:18;98551.63;;;2.00
11926;BMP180;6022;48.768;18.608;2023-11-19T07:16:47;98557.31;;;2.05
11926;BMP180;6022;48.768;18.608;2023-11-19T07:19:16;98546.94;;;2.18
11926;BMP180;6022;48.768;18.608;2023-11-19T07:21:44;98559.22;;;2.25
11926;BMP180;6022;48.768;18.608;2023-11-19T07:24:12;98559.84;;;2.32
11926;BMP180;6022;48.768;18.608;2023-11-19T07:26:47;98557.41;;;2.30
11926;BMP180;6022;48.768;18.608;2023-11-19T07:29:15;98535.75;;;2.29
11926;BMP180;6022;48.768;18.608;2023-11-19T07:31:51;98520.47;;;2.38
11926;BMP180;6022;48.768;18.608;2023-11-19T07:34:21;98523.00;;;2.37
11926;BMP180;6022;48.768;18.608;2023-11-19T07:36:49;98523.63;;;2.43
11926;BMP180;6022;48.768;18.608;2023-11-19T07:39:17;98520.47;;;2.38
11926;BMP180;6022;48.768;18.608;2023-11-19T07:41:47;98516.13;;;2.43
11926;BMP180;6022;48.768;18.608;2023-11-19T07:44:15;98535.84;;;2.54
11926;BMP180;6022;48.768;18.608;2023-11-19T07:46:44;98530.06;;;2.52
11926;BMP180;6022;48.768;18.608;2023-11-19T07:49:22;98514.34;;;2.47
11926;BMP180;6022;48.768;18.608;2023-11-19T07:51:52;98548.22;;;2.58
11926;BMP180;6022;48.768;18.608;2023-11-19T07:54:20;98527.31;;;2.59
11926;BMP180;6022;48.768;18.608;2023-11-19T07:56:48;98515.91;;;2.51
11926;BMP180;6022;48.768;18.608;2023-11-19T07:59:17;98507.50;;;2.53
11926;BMP180;6022;48.768;18.608;2023-11-19T08:01:45;98510.00;;;2.53
11926;BMP180;6022;48.768;18.608;2023-11-19T08:04:15;98506.25;;;2.66
11926;BMP180;6022;48.768;18.608;2023-11-19T08:06:48;98492.00;;;2.68
11926;BMP180;6022;48.768;18.608;2023-11-19T08:09:17;98492.09;;;2.65
11926;BMP180;6022;48.768;18.608;2023-11-19T08:15:32;98473.88;;;2.86
11926;BMP180;6022;48.768;18.608;2023-11-19T08:18:11;98477.19;;;2.86
11926;BMP180;6022;48.768;18.608;2023-11-19T08:20:39;98479.75;;;2.85
11926;BMP180;6022;48.768;18.608;2023-11-19T08:23:09;98486.19;;;2.92
11926;BMP180;6022;48.768;18.608;2023-11-19T08:25:37;98489.41;;;2.95
11926;BMP180;6022;48.768;18.608;2023-11-19T08:28:05;98496.84;;;2.98
11926;BMP180;6022;48.768;18.608;2023-11-19T08:30:38;98509.94;;;3.06
11926;BMP180;6022;48.768;18.608;2023-11-19T08:33:57;98500.13;;;3.00
11926;BMP180;6022;48.768;18.608;2023-11-19T08:36:27;98508.16;;;3.09
11926;BMP180;6022;48.768;18.608;2023-11-19T08:39:00;98516.44;;;3.11
11926;BMP180;6022;48.768;18.608;2023-11-19T08:41:31;98510.72;;;3.08
11926;BMP180;6022;48.768;18.608;2023-11-19T08:44:27;98502.00;;;3.18
11926;BMP180;6022;48.768;18.608;2023-11-19T08:46:55;98490.81;;;3.03
11926;BMP180;6022;48.768;18.608;2023-11-19T08:49:23;98465.72;;;2.81
11926;BMP180;6022;48.768;18.608;2023-11-19T08:51:59;98460.09;;;2.73
11926;BMP180;6022;48.768;18.608;2023-11-19T08:54:48;98463.00;;;2.87
11926;BMP180;6022;48.768;18.608;2023-11-19T08:57:17;98471.28;;;2.89
11926;BMP180;6022;48.768;18.608;2023-11-19T08:59:48;98478.88;;;2.86
11926;BMP180;6022;48.768;18.608;2023-11-19T09:02:16;98470.56;;;2.85
11926;BMP180;6022;48.768;18.608;2023-11-19T09:04:46;98476.94;;;2.94
11926;BMP180;6022;48.768;18.608;2023-11-19T09:07:14;98490.06;;;3.01
11926;BMP180;6022;48.768;18.608;2023-11-19T09:09:41;98451.59;;;3.02
11926;BMP180;6022;48.768;18.608;2023-11-19T09:12:09;98453.25;;;3.03
11926;BMP180;6022;48.768;18.608;2023-11-19T09:14:37;98452.53;;;3.00
11926;BMP180;6022;48.768;18.608;2023-11-19T09:17:05;98473.28;;;3.03
11926;BMP180;6022;48.768;18.608;2023-11-19T09:19:36;98487.22;;;3.10
11926;BMP180;6022;48.768;18.608;2023-11-19T09:22:04;98478.75;;;3.14
11926;BMP180;6022;48.768;18.608;2023-11-19T09:24:34;98478.34;;;3.26
11926;BMP180;6022;48.768;18.608;2023-11-19T09:27:02;98470.81;;;3.26
11926;BMP180;6022;48.768;18.608;2023-11-19T09:29:32;98488.22;;;3.31
11926;BMP180;6022;48.768;18.608;2023-11-19T09:32:04;98484.59;;;3.39
11926;BMP180;6022;48.768;18.608;2023-11-19T09:34:32;98461.41;;;3.33
11926;BMP180;6022;48.768;18.608;2023-11-19T09:37:03;98454.59;;;3.36
11926;BMP180;6022;48.768;18.608;2023-11-19T09:39:49;98456.44;;;3.31
11926;BMP180;6022;48.768;18.608;2023-11-19T09:42:17;98445.56;;;3.32
11926;BMP180;6022;48.768;18.608;2023-11-19T09:44:47;98442.88;;;3.37
11926;BMP180;6022;48.768;18.608;2023-11-19T09:47:19;98452.00;;;3.39
11926;BMP180;6022;48.768;18.608;2023-11-19T09:49:49;98440.44;;;3.35
11926;BMP180;6022;48.768;18.608;2023-11-19T09:52:17;98442.06;;;3.36
11926;BMP180;6022;48.768;18.608;2023-11-19T09:54:45;98445.97;;;3.44
11926;BMP180;6022;48.768;18.608;2023-11-19T09:57:32;98433.34;;;3.46
11926;BMP180;6022;48.768;18.608;2023-11-19T10:00:10;98442.81;;;3.38
11926;BMP180;6022;48.768;18.608;2023-11-19T10:02:40;98452.53;;;3.47
11926;BMP180;6022;48.768;18.608;2023-11-19T10:05:12;98436.84;;;3.42
11926;BMP180;6022;48.768;18.608;2023-11-19T10:07:43;98440.63;;;3.52
11926;BMP180;6022;48.768;18.608;2023-11-19T10:10:12;98422.19;;;3.54
11926;BMP180;6022;48.768;18.608;2023-11-19T10:12:53;98414.72;;;3.53
11926;BMP180;6022;48.768;18.608;2023-11-19T10:15:25;98415.53;;;3.53
11926;BMP180;6022;48.768;18.608;2023-11-19T10:18:06;98411.25;;;3.55
11926;BMP180;6022;48.768;18.608;2023-11-19T10:21:02;98417.66;;;3.64
11926;BMP180;6022;48.768;18.608;2023-11-19T10:24:04;98396.06;;;3.60
11926;BMP180;6022;48.768;18.608;2023-11-19T10:27:16;98411.44;;;3.51
11926;BMP180;6022;48.768;18.608;2023-11-19T10:29:47;98406.19;;;3.57
11926;BMP180;6022;48.768;18.608;2023-11-19T10:32:15;98397.91;;;3.55
11926;BMP180;6022;48.768;18.608;2023-11-19T10:35:05;98383.19;;;3.46
11926;BMP180;6022;48.768;18.608;2023-11-19T10:37:34;98387.91;;;3.32
11926;BMP180;6022;48.768;18.608;2023-11-19T10:45:22;98365.81;;;3.41
11926;BMP180;6022;48.768;18.608;2023-11-19T10:47:57;98350.06;;;3.38
11926;BMP180;6022;48.768;18.608;2023-11-19T10:50:26;98349.22;;;3.16
11926;BMP180;6022;48.768;18.608;2023-11-19T10:53:00;98353.78;;;3.28
11926;BMP180;6022;48.768;18.608;2023-11-19T10:55:36;98339.25;;;3.15
11926;BMP180;6022;48.768;18.608;2023-11-19T10:58:09;98347.34;;;3.21
11926;BMP180;6022;48.768;18.608;2023-11-19T11:00:50;98345.25;;;3.11
11926;BMP180;6022;48.768;18.608;2023-11-19T11:03:25;98346.91;;;3.10
11926;BMP180;6022;48.768;18.608;2023-11-19T11:05:56;98350.94;;;3.14
11926;BMP180;6022;48.768;18.608;2023-11-19T11:08:24;98344.22;;;3.16
11926;BMP180;6022;48.768;18.608;2023-11-19T11:10:56;98337.16;;;3.03
11926;BMP180;6022;48.768;18.608;2023-11-19T11:13:31;98331.25;;;3.05
11926;BMP180;6022;48.768;18.608;2023-11-19T11:16:01;98331.03;;;3.11
11926;BMP180;6022;48.768;18.608;2023-11-19T11:18:35;98315.84;;;3.14
11926;BMP180;6022;48.768;18.608;2023-11-19T11:21:09;98318.09;;;3.22
11926;BMP180;6022;48.768;18.608;2023-11-19T11:24:16;98323.72;;;3.28
11926;BMP180;6022;48.768;18.608;2023-11-19T11:27:44;98324.34;;;3.33
11926;BMP180;6022;48.768;18.608;2023-11-19T11:33:26;98322.69;;;3.34
11926;BMP180;6022;48.768;18.608;2023-11-19T11:36:19;98325.63;;;3.44
11926;BMP180;6022;48.768;18.608;2023-11-19T11:38:51;98325.72;;;3.41
11926;BMP180;6022;48.768;18.608;2023-11-19T11:41:25;98318.69;;;3.28
11926;BMP180;6022;48.768;18.608;2023-11-19T11:43:59;98316.56;;;3.18
11926;BMP180;6022;48.768;18.608;2023-11-19T11:49:05;98312.00;;;3.29
11926;BMP180;6022;48.768;18.608;2023-11-19T11:54:26;98307.03;;;3.27
11926;BMP180;6022;48.768;18.608;2023-11-19T12:02:18;98286.06;;;3.30
11926;BMP180;6022;48.768;18.608;2023-11-19T12:04:52;98264.56;;;3.24
11926;BMP180;6022;48.768;18.608;2023-11-19T12:07:23;98271.59;;;3.36
11926;BMP180;6022;48.768;18.608;2023-11-19T12:10:07;98252.31;;;3.38
11926;BMP180;6022;48.768;18.608;2023-11-19T12:12:36;98254.47;;;3.47
11926;BMP180;6022;48.768;18.608;2023-11-19T12:15:07;98251.72;;;3.53
11926;BMP180;6022;48.768;18.608;2023-11-19T12:17:49;98244.03;;;3.57
11926;BMP180;6022;48.768;18.608;2023-11-19T12:20:20;98234.75;;;3.59
11926;BMP180;6022;48.768;18.608;2023-11-19T12:22:52;98237.19;;;3.61
11926;BMP180;6022;48.768;18.608;2023-11-19T12:25:21;98221.91;;;3.67
11926;BMP180;6022;48.768;18.608;2023-11-19T12:27:53;98217.03;;;3.64
11926;BMP180;6022;48.768;18.608;2023-11-19T12:30:26;98209.44;;;3.65
11926;BMP180;6022;48.768;18.608;2023-11-19T12:32:57;98205.50;;;3.60
11926;BMP180;6022;48.768;18.608;2023-11-19T12:35:28;98194.72;;;3.58
11926;BMP180;6022;48.768;18.608;2023-11-19T12:37:56;98194.56;;;3.61
11926;BMP180;6022;48.768;18.608;2023-11-19T12:40:30;98187.94;;;3.60
11926;BMP180;6022;48.768;18.608;2023-11-19T12:43:04;98202.78;;;3.64
11926;BMP180;6022;48.768;18.608;2023-11-19T12:45:36;98191.16;;;3.63
11926;BMP180;6022;48.768;18.608;2023-11-19T12:48:08;98196.91;;;3.65
11926;BMP180;6022;48.768;18.608;2023-11-19T12:53:26;98195.72;;;3.54
11926;BMP180;6022;48.768;18.608;2023-11-19T12:55:55;98201.47;;;3.56
11926;BMP180;6022;48.768;18.608;2023-11-19T12:58:40;98202.09;;;3.61
11926;BMP180;6022;48.768;18.608;2023-11-19T13:01:15;98212.38;;;3.55
11926;BMP180;6022;48.768;18.608;2023-11-19T13:03:44;98212.78;;;3.66
11926;BMP180;6022;48.768;18.608;2023-11-19T13:06:14;98206.41;;;3.57
11926;BMP180;6022;48.768;18.608;2023-11-19T13:08:48;98195.81;;;3.51
11926;BMP180;6022;48.768;18.608;2023-11-19T13:11:32;98209.00;;;3.56
11926;BMP180;6022;48.768;18.608;2023-11-19T13:14:04;98196.88;;;3.45
11926;BMP180;6022;48.768;18.608;2023-11-19T13:17:08;98202.22;;;3.58
11926;BMP180;6022;48.768;18.608;2023-11-19T13:19:36;98204.50;;;3.64
11926;BMP180;6022;48.768;18.608;2023-11-19T13:22:10;98198.47;;;3.68
11926;BMP180;6022;48.768;18.608;2023-11-19T13:24:57;98192.19;;;3.58
11926;BMP180;6022;48.768;18.608;2023-11-19T13:27:28;98190.25;;;3.64
11926;BMP180;6022;48.768;18.608;2023-11-19T13:30:24;98190.81;;;3.51
11926;BMP180;6022;48.768;18.608;2023-11-19T13:33:02;98199.38;;;3.45
11926;BMP180;6022;48.768;18.608;2023-11-19T13:35:38;98211.63;;;3.53
11926;BMP180;6022;48.768;18.608;2023-11-19T13:38:20;98204.91;;;3.53
11926;BMP180;6022;48.768;18.608;2023-11-19T13:40:53;98212.19;;;3.59
11926;BMP180;6022;48.768;18.608;2023-11-19T13:43:35;98208.84;;;3.59
11926;BMP180;6022;48.768;18.608;2023-11-19T13:46:09;98201.69;;;3.50
11926;BMP180;6022;48.768;18.608;2023-11-19T13:48:48;98213.13;;;3.57
11926;BMP180;6022;48.768;18.608;2023-11-19T13:51:22;98219.66;;;3.61
11926;BMP180;6022;48.768;18.608;2023-11-19T13:54:17;98204.75;;;3.58
11926;BMP180;6022;48.768;18.608;2023-11-19T13:56:47;98207.31;;;3.56
11926;BMP180;6022;48.768;18.608;2023-11-19T13:59:16;98218.94;;;3.57
11926;BMP180;6022;48.768;18.608;2023-11-19T14:01:45;98230.88;;;3.52
11926;BMP180;6022;48.768;18.608;2023-11-19T14:04:14;98216.22;;;3.21
11926;BMP180;6022;48.768;18.608;2023-11-19T14:07:28;98241.00;;;3.28
11926;BMP180;6022;48.768;18.608;2023-11-19T14:10:09;98238.44;;;3.30
11926;BMP180;6022;48.768;18.608;2023-11-19T14:12:39;98239.91;;;3.35
11926;BMP180;6022;48.768;18.608;2023-11-19T14:15:08;98235.28;;;3.46
11926;BMP180;6022;48.768;18.608;2023-11-19T14:17:44;98237.91;;;3.43
11926;BMP180;6022;48.768;18.608;2023-11-19T14:20:13;98244.31;;;3.29
11926;BMP180;6022;48.768;18.608;2023-11-19T14:22:41;98232.88;;;3.22
11926;BMP180;6022;48.768;18.608;2023-11-19T14:25:11;98244.38;;;3.27
11926;BMP180;6022;48.768;18.608;2023-11-19T14:27:40;98245.88;;;3.31
11926;BMP180;6022;48.768;18.608;2023-11-19T14:30:11;98250.03;;;3.32
11926;BMP180;6022;48.768;18.608;2023-11-19T14:32:42;98237.56;;;3.31
11926;BMP180;6022;48.768;18.608;2023-11-19T14:35:14;98219.97;;;3.32
11926;BMP180;6022;48.768;18.608;2023-11-19T14:37:43;98228.22;;;3.13
11926;BMP180;6022;48.768;18.608;2023-11-19T14:40:12;98224.28;;;3.29
11926;BMP180;6022;48.768;18.608;2023-11-19T14:42:41;98215.59;;;3.37
11926;BMP180;6022;48.768;18.608;2023-11-19T14:45:09;98200.38;;;3.41
11926;BMP180;6022;48.768;18.608;2023-11-19T14:47:40;98220.31;;;3.44
11926;BMP180;6022;48.768;18.608;2023-11-19T14:50:08;98197.44;;;3.52
11926;BMP180;6022;48.768;18.608;2023-11-19T14:52:37;98210.59;;;3.37
11926;BMP180;6022;48.768;18.608;2023-11-19T14:55:06;98215.13;;;3.28
11926;BMP180;6022;48.768;18.608;2023-11-19T14:57:34;98215.81;;;3.31
11926;BMP180;6022;48.768;18.608;2023-11-19T15:00:04;98217.25;;;3.37
11926;BMP180;6022;48.768;18.608;2023-11-19T15:02:41;98216.72;;;3.50
11926;BMP180;6022;48.768;18.608;2023-11-19T15:05:09;98207.31;;;3.56
11926;BMP180;6022;48.768;18.608;2023-11-19T15:07:38;98208.84;;;3.59
11926;BMP180;6022;48.768;18.608;2023-11-19T15:10:08;98207.84;;;3.63
11926;BMP180;6022;48.768;18.608;2023-11-19T15:12:38;98207.31;;;3.56
11926;BMP180;6022;48.768;18.608;2023-11-19T15:15:09;98201.69;;;3.50
11926;BMP180;6022;48.768;18.608;2023-11-19T15:17:37;98202.38;;;3.53
11926;BMP180;6022;48.768;18.608;2023-11-19T15:20:07;98210.50;;;3.60